Airport View

Enter AWOS ICAO identifier for current METAR.

ex. KFNL

KDIJ 080556Z AUTO 00000KT 10SM CLR 11/03 A3023 RMK AO2 SLP179 T01060033 10261 20100 51011

8 Aug 2020 06:25

Frequency: 120.775

Phone: 208-354-6661

Other Area AWOS: KJAC - KRXE - K46U - KIDA

TAF KDIJ 080520Z 0806/0906 13007KT P6SM SKC FM081800 24013G23KT P6SM SCT080 FM090200 16007KT P6SM FEW080 AMD LTD TO CLD VIS AND WIND